Time;durP1;ratioP1;P1;durP2;ratioP2;P2;SDS_P1;SDS_P2;PMS_P1;PMS_P2;Temp;Humidity;BMP_temperature;BMP_pressure;BME280_temperature;BME280_humidity;BME280_pressure;Samples;Min_cycle;Max_cycle;Signal;HPM_P1;HPM_P2
2022/09/20 00:00:35;;;;;;;;;;;10.40;99.90;;;;;;4909747;29;19951;-75
2022/09/20 00:03:01;;;;;;;;;;;10.40;99.90;;;;;;4908865;29;19912;-76
2022/09/20 00:05:26;;;;;;;;;;;10.40;99.90;;;;;;4909849;29;20106;-75
2022/09/20 00:07:52;;;;;;;;;;;10.40;99.90;;;;;;4909629;29;19994;-75
2022/09/20 00:10:18;;;;;;;;;;;10.30;99.90;;;;;;4908974;29;19926;-76
2022/09/20 00:12:43;;;;;;;;;;;10.30;99.90;;;;;;4909667;29;19911;-76
2022/09/20 00:15:09;;;;;;;;;;;10.30;99.90;;;;;;4908868;29;19942;-76
2022/09/20 00:17:35;;;;;;;;;;;10.30;99.90;;;;;;4909485;29;19998;-75
2022/09/20 00:20:01;;;;;;;;;;;10.20;99.90;;;;;;4908478;29;19923;-76
2022/09/20 00:22:26;;;;;;;;;;;10.20;99.90;;;;;;4908875;29;19924;-75
2022/09/20 00:24:52;;;;;;;;;;;10.20;99.90;;;;;;4909352;29;19950;-76
2022/09/20 00:27:18;;;;;;;;;;;10.20;99.90;;;;;;4908746;29;19912;-76
2022/09/20 00:29:43;;;;;;;;;;;10.20;99.90;;;;;;4909063;29;19912;-75
2022/09/20 00:32:09;;;;;;;;;;;10.20;99.90;;;;;;4909351;29;20091;-75
2022/09/20 00:37:18;;;;;;;;;;;10.20;99.90;;;;;;4909057;29;19918;-75
2022/09/20 00:39:44;;;;;;;;;;;10.20;99.90;;;;;;4909197;29;19915;-76
2022/09/20 00:42:13;;;;;;;;;;;10.30;99.90;;;;;;4908975;29;19951;-75
2022/09/20 00:44:42;;;;;;;;;;;10.20;99.90;;;;;;4903949;29;19936;-75
2022/09/20 00:47:26;;;;;;;;;;;10.20;99.90;;;;;;4890051;29;20013;-76
2022/09/20 00:49:55;;;;;;;;;;;10.30;99.90;;;;;;4893262;29;19967;-76
2022/09/20 00:52:21;;;;;;;;;;;10.30;99.90;;;;;;4873946;29;19916;-76
2022/09/20 00:54:47;;;;;;;;;;;10.30;99.90;;;;;;4893548;29;20150;-76
2022/09/20 00:57:12;;;;;;;;;;;10.20;99.90;;;;;;4907533;29;20012;-76
2022/09/20 00:59:39;;;;;;;;;;;10.20;99.90;;;;;;4906394;29;19916;-75
2022/09/20 01:02:14;;;;;;;;;;;10.20;99.90;;;;;;4907819;29;19915;-76
2022/09/20 01:04:40;;;;;;;;;;;10.10;99.90;;;;;;4907746;29;19911;-75
2022/09/20 01:07:06;;;;;;;;;;;10.10;99.90;;;;;;4907436;29;19918;-76
2022/09/20 01:09:31;;;;;;;;;;;10.10;99.90;;;;;;4907780;29;20002;-75
2022/09/20 01:11:57;;;;;;;;;;;10.10;99.90;;;;;;4906574;29;19915;-76
2022/09/20 01:14:24;;;;;;;;;;;10.10;99.90;;;;;;4891912;29;19918;-75
2022/09/20 01:16:51;;;;;;;;;;;10.10;99.90;;;;;;4907266;29;19943;-75
2022/09/20 01:19:32;;;;;;;;;;;10.10;99.90;;;;;;4907381;29;19988;-76
2022/09/20 01:21:57;;;;;;;;;;;10.20;99.90;;;;;;4891663;29;20113;-76
2022/09/20 01:24:29;;;;;;;;;;;10.10;99.90;;;;;;4907406;29;19919;-75
2022/09/20 01:27:02;;;;;;;;;;;10.10;99.90;;;;;;4907068;29;19919;-75
2022/09/20 01:29:36;;;;;;;;;;;10.10;99.90;;;;;;4903520;29;19943;-75
2022/09/20 01:32:02;;;;;;;;;;;10.20;99.90;;;;;;4888615;29;19911;-76
2022/09/20 01:34:44;;;;;;;;;;;10.20;99.90;;;;;;4888536;29;19986;-76
2022/09/20 01:37:25;;;;;;;;;;;10.20;99.90;;;;;;4888196;29;20232;-76
2022/09/20 01:40:03;;;;;;;;;;;10.20;99.90;;;;;;4872773;29;20007;-75
2022/09/20 01:42:33;;;;;;;;;;;10.20;99.90;;;;;;4873718;29;19915;-75
2022/09/20 01:45:02;;;;;;;;;;;10.20;99.90;;;;;;4888143;29;19912;-75
2022/09/20 01:47:52;;;;;;;;;;;10.20;99.90;;;;;;4906072;29;20194;-75
2022/09/20 01:50:51;;;;;;;;;;;10.20;99.90;;;;;;4908120;29;19912;-75
2022/09/20 01:53:39;;;;;;;;;;;10.20;99.90;;;;;;4906900;29;19911;-76
2022/09/20 01:56:40;;;;;;;;;;;10.30;99.90;;;;;;4906636;29;19912;-76
2022/09/20 01:59:17;;;;;;;;;;;10.20;99.90;;;;;;4886281;29;19915;-75
2022/09/20 02:01:51;;;;;;;;;;;10.30;99.90;;;;;;4906748;29;19912;-76
2022/09/20 02:04:54;;;;;;;;;;;10.30;99.90;;;;;;4907849;29;19919;-75
2022/09/20 02:07:46;;;;;;;;;;;10.30;99.90;;;;;;4907824;29;20142;-75
2022/09/20 02:10:42;;;;;;;;;;;10.30;99.90;;;;;;4906623;29;19943;-76
2022/09/20 02:13:29;;;;;;;;;;;10.30;99.90;;;;;;4907769;29;19911;-75
2022/09/20 02:16:23;;;;;;;;;;;10.30;99.90;;;;;;4907508;29;20146;-75
2022/09/20 02:19:09;;;;;;;;;;;10.30;99.90;;;;;;4906778;29;20190;-75
2022/09/20 02:21:40;;;;;;;;;;;10.30;99.90;;;;;;4887827;29;19911;-75
2022/09/20 02:24:51;;;;;;;;;;;10.30;99.90;;;;;;4906679;29;19986;-76
2022/09/20 02:27:31;;;;;;;;;;;10.30;99.90;;;;;;4897659;29;19956;-75
2022/09/20 02:30:07;;;;;;;;;;;10.30;99.90;;;;;;4906496;29;19912;-75
2022/09/20 02:32:45;;;;;;;;;;;10.30;99.90;;;;;;4892040;29;19967;-75
2022/09/20 02:35:16;;;;;;;;;;;10.30;99.90;;;;;;4907766;29;19919;-76
2022/09/20 02:38:19;;;;;;;;;;;10.30;99.90;;;;;;4902571;29;19922;-76
2022/09/20 02:41:00;;;;;;;;;;;10.30;99.90;;;;;;4888019;29;19952;-75
2022/09/20 02:43:39;;;;;;;;;;;10.30;99.90;;;;;;4931041;23;19923;-78
2022/09/20 02:46:28;;;;;;;;;;;10.30;99.90;;;;;;4879989;29;19919;-77
2022/09/20 02:49:04;;;;;;;;;;;10.30;99.90;;;;;;4925401;29;20229;-78
2022/09/20 02:51:35;;;;;;;;;;;10.30;99.90;;;;;;4925901;29;19911;-77
2022/09/20 02:54:41;;;;;;;;;;;10.30;99.90;;;;;;4875739;29;19918;-77
2022/09/20 02:57:41;;;;;;;;;;;10.30;99.90;;;;;;4906372;29;19911;-77
2022/09/20 03:00:13;;;;;;;;;;;10.30;99.90;;;;;;4892999;29;19915;-77
2022/09/20 03:03:22;;;;;;;;;;;10.20;99.90;;;;;;4890860;29;19938;-77
2022/09/20 03:06:10;;;;;;;;;;;10.20;99.90;;;;;;4901060;29;19912;-77
2022/09/20 03:09:03;;;;;;;;;;;10.20;99.90;;;;;;4906390;29;20258;-77
2022/09/20 03:11:38;;;;;;;;;;;10.20;99.90;;;;;;4893452;29;20207;-78
2022/09/20 03:14:21;;;;;;;;;;;10.20;99.90;;;;;;4885183;29;19971;-77
2022/09/20 03:17:15;;;;;;;;;;;10.20;99.90;;;;;;4884097;29;19919;-78
2022/09/20 03:19:56;;;;;;;;;;;10.20;99.90;;;;;;4884511;29;19916;-77
2022/09/20 03:22:39;;;;;;;;;;;10.20;99.90;;;;;;4870591;29;20134;-77
2022/09/20 03:25:22;;;;;;;;;;;10.20;99.90;;;;;;4890373;29;19948;-79
2022/09/20 03:27:56;;;;;;;;;;;10.20;99.90;;;;;;4888734;29;19912;-77
2022/09/20 03:30:25;;;;;;;;;;;10.20;99.90;;;;;;4873295;29;19912;-77
2022/09/20 03:32:58;;;;;;;;;;;10.10;99.90;;;;;;4881567;29;20019;-77
2022/09/20 03:35:45;;;;;;;;;;;10.20;99.90;;;;;;4890594;29;19911;-76
2022/09/20 03:38:35;;;;;;;;;;;10.10;99.90;;;;;;4890254;29;19915;-77
2022/09/20 03:41:29;;;;;;;;;;;10.10;99.90;;;;;;4890825;29;19955;-76
2022/09/20 03:43:55;;;;;;;;;;;10.10;99.90;;;;;;4891418;29;20254;-77
2022/09/20 03:46:47;;;;;;;;;;;10.10;99.90;;;;;;4890968;29;19912;-77
2022/09/20 03:49:36;;;;;;;;;;;10.10;99.90;;;;;;4889615;29;19916;-76
2022/09/20 03:52:20;;;;;;;;;;;10.10;99.90;;;;;;4890300;29;19982;-78
2022/09/20 03:55:45;;;;;;;;;;;10.10;99.90;;;;;;4890347;29;20095;-77
2022/09/20 03:58:44;;;;;;;;;;;10.00;99.90;;;;;;4845299;29;19979;-77
2022/09/20 04:01:47;;;;;;;;;;;10.00;99.90;;;;;;4874083;29;19922;-77
2022/09/20 04:04:21;;;;;;;;;;;10.00;99.90;;;;;;4891272;29;19912;-77
2022/09/20 04:07:17;;;;;;;;;;;9.90;99.90;;;;;;4889990;29;19942;-77
2022/09/20 04:09:59;;;;;;;;;;;9.90;99.90;;;;;;4874615;29;19943;-77
2022/09/20 04:12:38;;;;;;;;;;;9.80;99.90;;;;;;4890380;29;19912;-77
2022/09/20 04:15:26;;;;;;;;;;;9.80;99.90;;;;;;4890098;29;19911;-77
2022/09/20 04:18:37;;;;;;;;;;;9.70;99.90;;;;;;4889961;29;19934;-77
2022/09/20 04:21:10;;;;;;;;;;;9.70;99.90;;;;;;4873579;29;19927;-78
2022/09/20 04:23:48;;;;;;;;;;;9.70;99.90;;;;;;4888034;29;19918;-77
2022/09/20 04:26:15;;;;;;;;;;;9.70;99.90;;;;;;4890644;29;19915;-77
2022/09/20 04:29:16;;;;;;;;;;;9.60;99.90;;;;;;4889588;29;19915;-76
2022/09/20 04:31:49;;;;;;;;;;;9.60;99.90;;;;;;4873782;29;19918;-76
2022/09/20 04:37:31;;;;;;;;;;;9.50;99.90;;;;;;4871055;29;19919;-76
2022/09/20 04:40:00;;;;;;;;;;;9.50;99.90;;;;;;4870855;29;20117;-76
2022/09/20 04:43:03;;;;;;;;;;;9.40;99.90;;;;;;4871554;29;20157;-76
2022/09/20 04:46:24;;;;;;;;;;;9.40;99.90;;;;;;4871856;29;19919;-76
2022/09/20 04:49:14;;;;;;;;;;;9.40;99.90;;;;;;4846124;29;19912;-77
2022/09/20 04:51:40;;;;;;;;;;;9.40;99.90;;;;;;4889196;29;19919;-76
2022/09/20 04:54:43;;;;;;;;;;;9.40;99.90;;;;;;4890373;29;19912;-77
2022/09/20 04:57:18;;;;;;;;;;;9.30;99.90;;;;;;4888847;29;19912;-76
2022/09/20 05:00:11;;;;;;;;;;;9.30;99.90;;;;;;4890095;29;20210;-76
2022/09/20 05:03:05;;;;;;;;;;;9.30;99.90;;;;;;4888851;29;19983;-76
2022/09/20 05:05:58;;;;;;;;;;;9.30;99.90;;;;;;4888865;29;19911;-76
2022/09/20 05:09:01;;;;;;;;;;;9.30;99.90;;;;;;4888795;29;19983;-76
2022/09/20 05:11:46;;;;;;;;;;;9.30;99.90;;;;;;4889955;29;19912;-76
2022/09/20 05:14:30;;;;;;;;;;;9.30;99.90;;;;;;4890126;29;20278;-76
2022/09/20 05:17:34;;;;;;;;;;;9.20;99.90;;;;;;4888401;29;19911;-76
2022/09/20 05:20:06;;;;;;;;;;;9.20;99.90;;;;;;4871739;29;19915;-77
2022/09/20 05:22:40;;;;;;;;;;;9.20;99.90;;;;;;4885692;29;19960;-76
2022/09/20 05:25:25;;;;;;;;;;;9.20;99.90;;;;;;4889797;29;19912;-77
2022/09/20 05:28:14;;;;;;;;;;;9.20;99.90;;;;;;4888379;29;19919;-77
2022/09/20 05:30:45;;;;;;;;;;;9.20;99.90;;;;;;4873668;29;19912;-76
2022/09/20 05:33:35;;;;;;;;;;;9.20;99.90;;;;;;4873039;29;19974;-76
2022/09/20 05:36:59;;;;;;;;;;;9.20;99.90;;;;;;4884399;29;19911;-78
2022/09/20 05:39:37;;;;;;;;;;;9.20;99.90;;;;;;4858705;29;19921;-79
2022/09/20 05:42:13;;;;;;;;;;;9.30;99.90;;;;;;4875656;29;19916;-78
2022/09/20 05:44:57;;;;;;;;;;;9.30;99.90;;;;;;4888550;29;19918;-77
2022/09/20 05:47:31;;;;;;;;;;;9.30;99.90;;;;;;4887069;29;20107;-77
2022/09/20 05:50:03;;;;;;;;;;;9.30;99.90;;;;;;4888506;29;19912;-78
2022/09/20 05:52:57;;;;;;;;;;;9.30;99.90;;;;;;4881279;29;20108;-77
2022/09/20 05:55:51;;;;;;;;;;;9.30;99.90;;;;;;4897252;29;19912;-77
2022/09/20 05:58:56;;;;;;;;;;;9.30;99.90;;;;;;4863754;29;19986;-77
2022/09/20 06:01:38;;;;;;;;;;;9.40;99.90;;;;;;4888301;29;20158;-77
2022/09/20 06:04:23;;;;;;;;;;;9.40;99.90;;;;;;4884606;29;20178;-77
2022/09/20 06:07:08;;;;;;;;;;;9.40;99.90;;;;;;4869439;29;19940;-77
2022/09/20 06:09:59;;;;;;;;;;;9.40;99.90;;;;;;4869569;29;19919;-78
2022/09/20 06:12:28;;;;;;;;;;;9.50;99.90;;;;;;4870608;29;19923;-77
2022/09/20 06:15:01;;;;;;;;;;;9.50;99.90;;;;;;4872585;29;19919;-78
2022/09/20 06:17:27;;;;;;;;;;;9.50;99.90;;;;;;4878541;29;20139;-77
2022/09/20 06:20:06;;;;;;;;;;;9.60;99.90;;;;;;4876312;29;19996;-77
2022/09/20 06:22:33;;;;;;;;;;;9.60;99.90;;;;;;4871952;29;19924;-77
2022/09/20 06:25:07;;;;;;;;;;;9.70;99.90;;;;;;4869143;29;19919;-78
2022/09/20 06:27:40;;;;;;;;;;;9.70;99.90;;;;;;4870188;29;19912;-77
2022/09/20 06:30:17;;;;;;;;;;;9.80;99.90;;;;;;4869470;29;19926;-77
2022/09/20 06:33:16;;;;;;;;;;;9.90;99.90;;;;;;4854476;29;19960;-77
2022/09/20 06:42:01;;;;;;;;;;;10.00;99.90;;;;;;4888793;29;19923;-77
2022/09/20 06:44:27;;;;;;;;;;;10.00;99.90;;;;;;4887896;29;19974;-78
2022/09/20 06:46:53;;;;;;;;;;;10.00;99.90;;;;;;4874809;29;19922;-77
2022/09/20 06:49:19;;;;;;;;;;;10.00;99.90;;;;;;4884328;29;20251;-77
2022/09/20 06:51:45;;;;;;;;;;;10.00;99.90;;;;;;4869216;29;19960;-78
2022/09/20 06:54:14;;;;;;;;;;;10.10;99.90;;;;;;4879349;29;19913;-77
2022/09/20 06:56:40;;;;;;;;;;;10.10;99.90;;;;;;4884927;29;19912;-77
2022/09/20 06:59:13;;;;;;;;;;;10.10;99.90;;;;;;4871729;29;19995;-70
2022/09/20 07:01:39;;;;;;;;;;;10.10;99.90;;;;;;4873735;29;19939;-71
2022/09/20 07:04:05;;;;;;;;;;;10.10;99.90;;;;;;4873571;29;19913;-70
2022/09/20 07:06:31;;;;;;;;;;;10.20;99.90;;;;;;4887768;29;19964;-70
2022/09/20 07:08:57;;;;;;;;;;;10.30;99.90;;;;;;4873668;29;19912;-71
2022/09/20 07:11:22;;;;;;;;;;;10.40;99.90;;;;;;4885061;29;20198;-71
2022/09/20 07:13:49;;;;;;;;;;;10.40;99.90;;;;;;4891699;29;20229;-70
2022/09/20 07:16:15;;;;;;;;;;;10.40;99.90;;;;;;4890798;29;19956;-71
2022/09/20 07:18:41;;;;;;;;;;;10.50;99.90;;;;;;4891876;29;19951;-70
2022/09/20 07:21:14;;;;;;;;;;;10.60;99.90;;;;;;4890486;29;20414;-71
2022/09/20 07:23:39;;;;;;;;;;;10.60;99.90;;;;;;4890893;29;19935;-77
2022/09/20 07:26:05;;;;;;;;;;;10.70;99.90;;;;;;4890611;29;19911;-78
2022/09/20 07:28:32;;;;;;;;;;;10.70;99.90;;;;;;4887037;29;19919;-78
2022/09/20 07:30:58;;;;;;;;;;;10.70;99.90;;;;;;4872139;29;19916;-78
2022/09/20 07:33:24;;;;;;;;;;;10.70;99.90;;;;;;4871996;29;20413;-78
2022/09/20 07:35:52;;;;;;;;;;;10.70;99.90;;;;;;4873850;29;20118;-78
2022/09/20 07:38:17;;;;;;;;;;;10.80;99.90;;;;;;4875161;29;19915;-78
2022/09/20 07:40:45;;;;;;;;;;;10.80;99.90;;;;;;4890710;29;20122;-78
2022/09/20 07:43:11;;;;;;;;;;;10.80;99.90;;;;;;4891719;29;19916;-78
2022/09/20 07:45:38;;;;;;;;;;;10.80;99.90;;;;;;4890918;29;19941;-79
2022/09/20 07:48:06;;;;;;;;;;;10.80;99.90;;;;;;4890565;29;19982;-78
2022/09/20 07:50:32;;;;;;;;;;;10.80;99.90;;;;;;4886922;29;19919;-78
2022/09/20 07:52:58;;;;;;;;;;;10.80;99.90;;;;;;4872011;29;19912;-78
2022/09/20 07:55:23;;;;;;;;;;;10.90;99.90;;;;;;4887839;29;19912;-78
2022/09/20 07:57:50;;;;;;;;;;;10.90;99.90;;;;;;4871935;29;19912;-78
2022/09/20 08:00:15;;;;;;;;;;;11.00;99.90;;;;;;4883518;29;20096;-78
2022/09/20 08:02:41;;;;;;;;;;;11.10;99.90;;;;;;4873016;29;19959;-77
2022/09/20 08:05:07;;;;;;;;;;;11.20;99.90;;;;;;4887328;29;20131;-77
2022/09/20 08:07:33;;;;;;;;;;;11.30;99.90;;;;;;4885556;29;19983;-78
2022/09/20 08:09:59;;;;;;;;;;;11.40;99.90;;;;;;4890650;29;20077;-78
2022/09/20 08:12:25;;;;;;;;;;;11.40;99.90;;;;;;4889424;29;19916;-78
2022/09/20 08:14:51;;;;;;;;;;;11.50;99.90;;;;;;4889675;29;19912;-78
2022/09/20 08:17:18;;;;;;;;;;;11.50;99.90;;;;;;4890805;29;19911;-77
2022/09/20 08:19:44;;;;;;;;;;;11.60;99.90;;;;;;4874065;29;20118;-78
2022/09/20 08:22:11;;;;;;;;;;;11.70;99.90;;;;;;4889860;29;19959;-77
2022/09/20 08:24:38;;;;;;;;;;;11.80;99.90;;;;;;4890032;29;19912;-77
2022/09/20 08:27:03;;;;;;;;;;;11.80;99.90;;;;;;4889665;29;20053;-77
2022/09/20 08:29:29;;;;;;;;;;;11.80;99.90;;;;;;4889396;29;19918;-78
2022/09/20 08:31:57;;;;;;;;;;;11.90;99.90;;;;;;4874264;29;19919;-77
2022/09/20 08:34:24;;;;;;;;;;;11.90;99.90;;;;;;4890912;29;19943;-78
2022/09/20 08:36:51;;;;;;;;;;;11.90;99.90;;;;;;4889007;29;19912;-78
2022/09/20 08:39:17;;;;;;;;;;;11.90;99.90;;;;;;4889673;29;19939;-77
2022/09/20 08:42:07;;;;;;;;;;;11.90;99.90;;;;;;4889340;29;20202;-78
2022/09/20 08:44:51;;;;;;;;;;;12.00;99.90;;;;;;4889322;29;19912;-78
2022/09/20 08:47:22;;;;;;;;;;;12.00;99.90;;;;;;4872156;29;19912;-78
2022/09/20 08:49:50;;;;;;;;;;;12.00;99.90;;;;;;4864708;29;19961;-78
2022/09/20 08:52:22;;;;;;;;;;;12.00;99.90;;;;;;4878434;29;20102;-78
2022/09/20 08:54:48;;;;;;;;;;;12.00;99.90;;;;;;4878265;29;20265;-78
2022/09/20 08:57:15;;;;;;;;;;;12.00;99.90;;;;;;4879454;29;19939;-78
2022/09/20 08:59:41;;;;;;;;;;;12.00;99.90;;;;;;4878574;29;19999;-78
2022/09/20 09:02:15;;;;;;;;;;;12.00;99.90;;;;;;4878240;29;20428;-78
2022/09/20 09:04:41;;;;;;;;;;;12.00;99.90;;;;;;4878757;29;19919;-78
2022/09/20 09:07:10;;;;;;;;;;;12.00;99.90;;;;;;4880062;29;19919;-78
2022/09/20 09:09:36;;;;;;;;;;;12.10;99.90;;;;;;4878167;29;19936;-78
2022/09/20 09:12:02;;;;;;;;;;;12.20;99.90;;;;;;4878523;29;19919;-78
2022/09/20 09:14:47;;;;;;;;;;;12.20;99.90;;;;;;4881928;29;19986;-78
2022/09/20 09:17:34;;;;;;;;;;;12.20;99.90;;;;;;4892745;29;19920;-78
2022/09/20 09:20:05;;;;;;;;;;;12.20;99.90;;;;;;4880020;29;19916;-78
2022/09/20 09:22:35;;;;;;;;;;;12.20;99.90;;;;;;4880267;29;19920;-78
2022/09/20 09:25:13;;;;;;;;;;;12.20;99.90;;;;;;4879589;29;20199;-78
2022/09/20 09:28:05;;;;;;;;;;;12.20;99.90;;;;;;4889704;29;19939;-78
2022/09/20 09:30:35;;;;;;;;;;;12.30;99.90;;;;;;4891453;29;19911;-78
2022/09/20 09:33:18;;;;;;;;;;;12.20;99.90;;;;;;4888837;29;20273;-77
2022/09/20 09:35:52;;;;;;;;;;;12.20;99.90;;;;;;4888754;29;19951;-78
2022/09/20 09:38:23;;;;;;;;;;;12.30;99.90;;;;;;4887970;29;19944;-79
2022/09/20 09:40:53;;;;;;;;;;;12.40;99.90;;;;;;4888234;29;19916;-78
2022/09/20 09:43:27;;;;;;;;;;;12.40;99.90;;;;;;4888360;29;19915;-78
2022/09/20 09:45:54;;;;;;;;;;;12.60;99.90;;;;;;4873904;29;19918;-78
2022/09/20 09:48:23;;;;;;;;;;;12.60;99.90;;;;;;4888280;29;20173;-79
2022/09/20 09:50:49;;;;;;;;;;;12.80;99.90;;;;;;4884940;29;19947;-79
2022/09/20 09:53:25;;;;;;;;;;;12.90;99.90;;;;;;4870056;29;19919;-77
2022/09/20 09:56:13;;;;;;;;;;;13.00;99.90;;;;;;4855471;29;19912;-77
2022/09/20 09:58:43;;;;;;;;;;;13.10;99.90;;;;;;4869802;29;19983;-78
2022/09/20 10:01:18;;;;;;;;;;;13.10;99.90;;;;;;4884495;29;19975;-77
2022/09/20 10:04:09;;;;;;;;;;;13.10;99.90;;;;;;4885431;29;20091;-78
2022/09/20 10:06:52;;;;;;;;;;;13.10;99.90;;;;;;4869334;29;19916;-79
2022/09/20 10:09:28;;;;;;;;;;;13.10;99.90;;;;;;4884804;29;19924;-78
2022/09/20 10:12:05;;;;;;;;;;;13.10;99.90;;;;;;4884509;29;19912;-78
2022/09/20 10:14:40;;;;;;;;;;;13.10;99.90;;;;;;4883046;29;19912;-78
2022/09/20 10:17:47;;;;;;;;;;;13.20;99.90;;;;;;4870415;29;19912;-77
2022/09/20 10:20:36;;;;;;;;;;;13.20;99.90;;;;;;4882029;29;19917;-77
2022/09/20 10:23:31;;;;;;;;;;;13.30;99.90;;;;;;4884833;29;19912;-78
2022/09/20 10:26:19;;;;;;;;;;;13.40;99.90;;;;;;4875332;29;19990;-78
2022/09/20 10:29:04;;;;;;;;;;;13.60;99.90;;;;;;4869284;29;19919;-73
2022/09/20 10:31:59;;;;;;;;;;;13.70;99.90;;;;;;4869991;29;19912;-74
2022/09/20 10:35:22;;;;;;;;;;;13.80;99.90;;;;;;4878429;29;19964;-77
2022/09/20 10:38:12;;;;;;;;;;;13.70;99.90;;;;;;4909387;29;19911;-78
2022/09/20 10:44:27;;;;;;;;;;;13.70;99.90;;;;;;4894103;29;20076;-77
2022/09/20 10:46:58;;;;;;;;;;;13.80;99.90;;;;;;4874085;29;19912;-78
2022/09/20 10:49:48;;;;;;;;;;;13.80;99.90;;;;;;4875810;29;19920;-78
2022/09/20 10:52:24;;;;;;;;;;;13.80;99.90;;;;;;4892467;29;20210;-77
2022/09/20 10:55:12;;;;;;;;;;;13.90;99.90;;;;;;4886739;29;19912;-77
2022/09/20 10:58:00;;;;;;;;;;;13.90;99.90;;;;;;4857009;29;19912;-78
2022/09/20 11:00:32;;;;;;;;;;;14.00;99.90;;;;;;4872304;29;20139;-78
2022/09/20 11:03:07;;;;;;;;;;;14.00;99.90;;;;;;4873641;29;20258;-77
2022/09/20 11:05:42;;;;;;;;;;;14.10;99.90;;;;;;4857314;29;20224;-77
2022/09/20 11:08:21;;;;;;;;;;;14.30;99.90;;;;;;4872456;29;19912;-76
2022/09/20 11:11:24;;;;;;;;;;;14.70;99.90;;;;;;4857327;29;20532;-76
2022/09/20 11:13:59;;;;;;;;;;;14.90;99.90;;;;;;4853630;29;19979;-76
2022/09/20 11:16:28;;;;;;;;;;;15.00;99.90;;;;;;4869236;29;19924;-77
2022/09/20 11:19:03;;;;;;;;;;;15.10;99.90;;;;;;4887610;29;19920;-76
2022/09/20 11:21:42;;;;;;;;;;;15.10;99.90;;;;;;4887804;29;19928;-76
2022/09/20 11:24:33;;;;;;;;;;;15.30;99.90;;;;;;4888028;29;19947;-76
2022/09/20 11:27:11;;;;;;;;;;;15.40;99.90;;;;;;4887325;29;19920;-76
2022/09/20 11:29:43;;;;;;;;;;;15.50;99.90;;;;;;4872002;29;19947;-76
2022/09/20 11:32:34;;;;;;;;;;;15.60;99.90;;;;;;4887387;29;20542;-76
2022/09/20 11:35:13;;;;;;;;;;;15.60;99.90;;;;;;4879589;29;19912;-76
2022/09/20 11:37:45;;;;;;;;;;;15.60;99.90;;;;;;4890412;29;20198;-76
2022/09/20 11:40:39;;;;;;;;;;;15.60;99.90;;;;;;4875181;29;20114;-76
2022/09/20 11:43:05;;;;;;;;;;;15.40;99.90;;;;;;4885543;29;19916;-76
2022/09/20 11:45:32;;;;;;;;;;;15.50;99.90;;;;;;4871460;29;19919;-76
2022/09/20 11:48:06;;;;;;;;;;;15.70;99.90;;;;;;4871479;29;20203;-77
2022/09/20 11:50:37;;;;;;;;;;;16.00;99.90;;;;;;4871776;29;19912;-76
2022/09/20 11:53:09;;;;;;;;;;;16.30;99.90;;;;;;4871711;29;20031;-75
2022/09/20 11:56:06;;;;;;;;;;;16.30;99.90;;;;;;4872744;29;19913;-75
2022/09/20 11:58:54;;;;;;;;;;;16.30;99.90;;;;;;4872641;29;19950;-75
2022/09/20 12:01:27;;;;;;;;;;;16.50;99.90;;;;;;4858093;29;20156;-75
2022/09/20 12:03:55;;;;;;;;;;;16.80;99.90;;;;;;4871640;29;19980;-75
2022/09/20 12:06:31;;;;;;;;;;;16.80;99.90;;;;;;4883235;29;19911;-74
2022/09/20 12:08:57;;;;;;;;;;;16.60;99.90;;;;;;4875050;29;19912;-75
2022/09/20 12:11:34;;;;;;;;;;;16.50;99.90;;;;;;4890101;29;19918;-75
2022/09/20 12:14:03;;;;;;;;;;;16.40;99.90;;;;;;4890128;29;19912;-75
2022/09/20 12:16:38;;;;;;;;;;;16.40;99.90;;;;;;4888667;29;19959;-74
2022/09/20 12:19:13;;;;;;;;;;;16.70;99.90;;;;;;4889885;29;19916;-75
2022/09/20 12:22:06;;;;;;;;;;;17.10;99.90;;;;;;4889894;29;19919;-75
2022/09/20 12:24:40;;;;;;;;;;;17.50;99.90;;;;;;4890021;29;19926;-75
2022/09/20 12:27:28;;;;;;;;;;;17.70;99.90;;;;;;4889634;29;19912;-75
2022/09/20 12:30:02;;;;;;;;;;;18.20;99.90;;;;;;4890066;29;19911;-74
2022/09/20 12:32:33;;;;;;;;;;;19.00;99.90;;;;;;4890757;29;19911;-75
2022/09/20 12:34:59;;;;;;;;;;;19.70;99.90;;;;;;4874156;29;20114;-75
2022/09/20 12:37:24;;;;;;;;;;;20.50;99.90;;;;;;4880828;29;19924;-75
2022/09/20 12:39:51;;;;;;;;;;;20.50;99.90;;;;;;4875533;29;20000;-75
2022/09/20 12:42:17;;;;;;;;;;;20.30;99.90;;;;;;4875215;29;19916;-75
2022/09/20 12:44:48;;;;;;;;;;;20.00;99.90;;;;;;4872025;29;19920;-75
2022/09/20 12:47:24;;;;;;;;;;;19.70;99.90;;;;;;4871723;29;20229;-75
2022/09/20 12:52:56;;;;;;;;;;;20.00;99.90;;;;;;4872065;29;19979;-76
2022/09/20 12:55:32;;;;;;;;;;;21.10;99.90;;;;;;4870999;29;19947;-75
2022/09/20 12:58:13;;;;;;;;;;;22.30;99.90;;;;;;4871418;29;19912;-75
2022/09/20 13:01:01;;;;;;;;;;;22.90;97.80;;;;;;4871701;29;19995;-76
2022/09/20 13:03:35;;;;;;;;;;;23.20;90.70;;;;;;4852772;29;19916;-75
2022/09/20 13:06:11;;;;;;;;;;;22.50;93.30;;;;;;4870360;29;20261;-75
2022/09/20 13:08:59;;;;;;;;;;;21.80;94.80;;;;;;4871721;29;19983;-75
2022/09/20 13:11:30;;;;;;;;;;;21.00;97.10;;;;;;4887205;29;20218;-75
2022/09/20 13:14:05;;;;;;;;;;;20.30;97.50;;;;;;4888785;29;19912;-75
2022/09/20 13:16:59;;;;;;;;;;;19.90;99.80;;;;;;4888839;29;20218;-75
2022/09/20 13:19:28;;;;;;;;;;;20.20;98.50;;;;;;4888972;29;19922;-76
2022/09/20 13:22:04;;;;;;;;;;;20.50;99.90;;;;;;4888775;29;19982;-76
2022/09/20 13:24:36;;;;;;;;;;;20.80;99.90;;;;;;4888785;29;20110;-75
2022/09/20 13:27:05;;;;;;;;;;;20.80;99.90;;;;;;4888604;29;20114;-75
2022/09/20 13:29:33;;;;;;;;;;;20.40;99.90;;;;;;4888827;29;19986;-75
2022/09/20 13:32:21;;;;;;;;;;;20.30;99.90;;;;;;4888427;29;19960;-76
2022/09/20 13:35:05;;;;;;;;;;;21.20;97.00;;;;;;4888687;29;19965;-76
2022/09/20 13:37:31;;;;;;;;;;;21.70;97.10;;;;;;4888500;29;20207;-75
2022/09/20 13:39:57;;;;;;;;;;;21.30;98.80;;;;;;4888569;29;19963;-75
2022/09/20 13:42:23;;;;;;;;;;;20.70;99.90;;;;;;4889433;29;19938;-75
2022/09/20 13:44:49;;;;;;;;;;;20.10;99.90;;;;;;4887835;29;19979;-75
2022/09/20 13:47:22;;;;;;;;;;;19.90;99.90;;;;;;4888013;29;19919;-76
2022/09/20 13:49:48;;;;;;;;;;;21.20;99.90;;;;;;4888398;29;19919;-76
2022/09/20 13:52:27;;;;;;;;;;;23.50;95.80;;;;;;4887783;29;19912;-76
2022/09/20 13:54:54;;;;;;;;;;;25.70;87.20;;;;;;4888342;29;19990;-76
2022/09/20 13:57:26;;;;;;;;;;;27.40;77.60;;;;;;4888001;29;20202;-76
2022/09/20 13:59:52;;;;;;;;;;;28.60;69.40;;;;;;4888250;29;19922;-76
2022/09/20 14:02:23;;;;;;;;;;;30.00;62.40;;;;;;4888123;29;20206;-77
2022/09/20 14:04:50;;;;;;;;;;;31.00;48.60;;;;;;4888150;29;19940;-76
2022/09/20 14:07:16;;;;;;;;;;;31.80;46.40;;;;;;4887558;29;19930;-76
2022/09/20 14:09:41;;;;;;;;;;;32.70;38.50;;;;;;4887959;29;20095;-77
2022/09/20 14:12:09;;;;;;;;;;;32.60;38.90;;;;;;4888089;29;19931;-77
2022/09/20 14:14:35;;;;;;;;;;;33.00;35.60;;;;;;4872469;29;20207;-77
2022/09/20 14:17:00;;;;;;;;;;;33.60;34.40;;;;;;4888080;29;19947;-77
2022/09/20 14:19:30;;;;;;;;;;;33.90;33.90;;;;;;4887995;29;19922;-77
2022/09/20 14:21:58;;;;;;;;;;;34.20;32.80;;;;;;4872411;29;19912;-77
2022/09/20 14:24:25;;;;;;;;;;;34.50;31.50;;;;;;4887947;29;19916;-77
2022/09/20 14:27:03;;;;;;;;;;;34.10;33.30;;;;;;4887712;29;19936;-77
2022/09/20 14:29:40;;;;;;;;;;;34.30;32.00;;;;;;4889028;29;19912;-77
2022/09/20 14:32:10;;;;;;;;;;;34.80;30.00;;;;;;4872331;29;19987;-77
2022/09/20 14:34:36;;;;;;;;;;;35.20;30.10;;;;;;4888046;29;20194;-77
2022/09/20 14:37:17;;;;;;;;;;;35.40;29.50;;;;;;4887721;29;19946;-77
2022/09/20 14:39:48;;;;;;;;;;;35.70;29.10;;;;;;4887913;29;19916;-77
2022/09/20 14:42:30;;;;;;;;;;;35.70;28.70;;;;;;4887838;29;19915;-78
2022/09/20 14:44:56;;;;;;;;;;;35.80;29.50;;;;;;4930178;23;19923;-73
2022/09/20 14:47:37;;;;;;;;;;;35.90;28.40;;;;;;4917189;29;20154;-73
2022/09/20 14:50:22;;;;;;;;;;;35.70;29.30;;;;;;4924252;29;19919;-73
2022/09/20 14:53:08;;;;;;;;;;;35.40;28.40;;;;;;4907528;29;19943;-73
2022/09/20 14:55:36;;;;;;;;;;;34.90;29.30;;;;;;4902412;29;19911;-73
2022/09/20 14:58:10;;;;;;;;;;;32.70;30.20;;;;;;4887404;29;19911;-73
2022/09/20 15:00:52;;;;;;;;;;;30.40;34.00;;;;;;4887353;29;19974;-73
2022/09/20 15:03:38;;;;;;;;;;;28.20;38.60;;;;;;4887492;29;19999;-72
2022/09/20 15:06:05;;;;;;;;;;;26.10;44.20;;;;;;4886903;29;19987;-72
2022/09/20 15:08:33;;;;;;;;;;;24.30;53.50;;;;;;4887333;29;20110;-73
2022/09/20 15:10:58;;;;;;;;;;;23.10;66.20;;;;;;4888307;29;19918;-72
2022/09/20 15:13:24;;;;;;;;;;;22.00;77.00;;;;;;4888680;29;19912;-73
2022/09/20 15:15:51;;;;;;;;;;;21.10;85.00;;;;;;4888175;29;19919;-72
2022/09/20 15:18:26;;;;;;;;;;;20.40;86.40;;;;;;4887020;29;20120;-72
2022/09/20 15:20:55;;;;;;;;;;;19.80;90.80;;;;;;4891564;29;19916;-72
2022/09/20 15:23:20;;;;;;;;;;;19.40;94.90;;;;;;4890585;29;19974;-72
2022/09/20 15:25:50;;;;;;;;;;;19.20;96.20;;;;;;4897050;29;19911;-72
2022/09/20 15:28:16;;;;;;;;;;;19.00;98.70;;;;;;4893786;29;20119;-72
2022/09/20 15:30:43;;;;;;;;;;;18.90;99.90;;;;;;4891181;29;19912;-72